This is the latest recevied weather packets stored in our database for station/object SP9WPN-12. If no packets are shown the sender has not sent any weather packets the latest 10 day(s).
| Time | Temp. | Humidity | Pressure | Rain* | Wind** | Luminosity | Snow |
|---|---|---|---|---|---|---|---|
| 1777819694 | 26.11° C | 29% | 1015.1 hPa | - | - | - | - |
| 1777819097 | 26.67° C | 29% | 1015 hPa | - | - | - | - |
| 1777818500 | 26.11° C | 29% | 1015.2 hPa | - | - | - | - |
| 1777817902 | 26.67° C | 29% | 1015.1 hPa | - | - | - | - |
| 1777817305 | 25.56° C | 30% | 1015.4 hPa | - | - | - | - |
| 1777816707 | 27.22° C | 27% | 1015.3 hPa | - | - | - | - |
| 1777816110 | 26.67° C | 29% | 1015.6 hPa | - | - | - | - |
| 1777815512 | 25° C | 30% | 1015.9 hPa | - | - | - | - |
| 1777814914 | 27.22° C | 28% | 1015.8 hPa | - | - | - | - |
| 1777814316 | 26.11° C | 29% | 1016 hPa | - | - | - | - |
| 1777813718 | 26.11° C | 30% | 1016.1 hPa | - | - | - | - |
| 1777813120 | 26.67° C | 29% | 1016.1 hPa | - | - | - | - |
| 1777812523 | 27.22° C | 28% | 1016.1 hPa | - | - | - | - |
| 1777811925 | 26.67° C | 29% | 1016.3 hPa | - | - | - | - |
| 1777811327 | 27.78° C | 28% | 1016.4 hPa | - | - | - | - |
| 1777810729 | 26.67° C | 28% | 1016.5 hPa | - | - | - | - |
| 1777810131 | 26.67° C | 30% | 1016.6 hPa | - | - | - | - |
| 1777809532 | 26.67° C | 30% | 1016.7 hPa | - | - | - | - |
| 1777808934 | 26.11° C | 30% | 1016.8 hPa | - | - | - | - |
| 1777808336 | 26.67° C | 30% | 1017 hPa | - | - | - | - |
| 1777807737 | 26.67° C | 29% | 1017.1 hPa | - | - | - | - |
| 1777807138 | 27.22° C | 29% | 1017.3 hPa | - | - | - | - |
| 1777806540 | 26.67° C | 29% | 1017.5 hPa | - | - | - | - |
| 1777805943 | 25° C | 32% | 1017.8 hPa | - | - | - | - |
| 1777805345 | 26.11° C | 31% | 1017.7 hPa | - | - | - | - |
* Rain since midnight (hover to see other rain measurements)
** Current wind speed in m/s (hover to see current wind gust speed)